NOZ1LP ENGM-EKCH
Flight info
| Callsign | NOZ1LP |
|---|---|
| Flight time | N/A |
| Altitude | 33000 |
| Route | OKSAT L996 GETPA/N0449F350 L996 KELIN DCT TOPLA L996 ERNOV |
| Aircraft | B738/M-SDE2E3FGHIRWXY/LB1 |
Departure
| Time | 2026-05-01 12:10 |
|---|---|
| Airport | Oslo-Gardermoen International Airport (ENGM) |
Arrival
| Time | N/A |
|---|---|
| Airport | Copenhagen Kastrup Airport (EKCH) |
| Time | Latitude | Longitude | Altitude | Speed | Heading |
|---|---|---|---|---|---|
| 2026-05-01 11:50 | 60.19640 | 11.10203 | 678 ft | 0 kts | 286° |
| 2026-05-01 12:00 | 60.19635 | 11.10243 | 678 ft | 3 kts | 286° |
| 2026-05-01 12:00 | 60.19629 | 11.10282 | 679 ft | 3 kts | 286° |
| 2026-05-01 12:00 | 60.19620 | 11.10347 | 679 ft | 4 kts | 286° |
| 2026-05-01 12:03 | 60.19625 | 11.10338 | 676 ft | 3 kts | 319° |
| 2026-05-01 12:03 | 60.19655 | 11.10376 | 681 ft | 9 kts | 51° |
| 2026-05-01 12:04 | 60.19714 | 11.10475 | 683 ft | 12 kts | 10° |
| 2026-05-01 12:04 | 60.19795 | 11.10519 | 680 ft | 12 kts | 18° |
| 2026-05-01 12:04 | 60.19877 | 11.10569 | 683 ft | 12 kts | 16° |
| 2026-05-01 12:04 | 60.19946 | 11.10647 | 682 ft | 12 kts | 64° |
| 2026-05-01 12:05 | 60.19932 | 11.10815 | 683 ft | 14 kts | 105° |
| 2026-05-01 12:05 | 60.19859 | 11.11330 | 681 ft | 19 kts | 106° |
| 2026-05-01 12:05 | 60.19855 | 11.11520 | 679 ft | 13 kts | 55° |
| 2026-05-01 12:06 | 60.19936 | 11.11578 | 678 ft | 12 kts | 13° |
| 2026-05-01 12:06 | 60.20016 | 11.11624 | 685 ft | 11 kts | 16° |
| 2026-05-01 12:06 | 60.20088 | 11.11672 | 686 ft | 11 kts | 37° |
| 2026-05-01 12:06 | 60.20084 | 11.11784 | 684 ft | 9 kts | 107° |
| 2026-05-01 12:07 | 60.20068 | 11.11890 | 681 ft | 5 kts | 104° |
| 2026-05-01 12:07 | 60.20063 | 11.11932 | 684 ft | 2 kts | 104° |
| 2026-05-01 12:07 | 60.20060 | 11.11956 | 686 ft | 2 kts | 104° |
| 2026-05-01 12:07 | 60.20057 | 11.11978 | 687 ft | 2 kts | 104° |
| 2026-05-01 12:08 | 60.20054 | 11.12000 | 680 ft | 2 kts | 104° |
| 2026-05-01 12:08 | 60.20051 | 11.12022 | 682 ft | 2 kts | 104° |
| 2026-05-01 12:08 | 60.20049 | 11.12043 | 685 ft | 2 kts | 104° |
| 2026-05-01 12:08 | 60.20044 | 11.12083 | 686 ft | 4 kts | 104° |
| 2026-05-01 12:09 | 60.20035 | 11.12149 | 685 ft | 5 kts | 104° |
| 2026-05-01 12:09 | 60.20022 | 11.12207 | 683 ft | 4 kts | 146° |
| 2026-05-01 12:09 | 60.19996 | 11.12192 | 688 ft | 7 kts | 202° |
| 2026-05-01 12:09 | 60.19716 | 11.12019 | 681 ft | 81 kts | 196° |
| 2026-05-01 12:10 | 60.18941 | 11.11554 | 682 ft | 148 kts | 204° |
| 2026-05-01 12:10 | 60.16854 | 11.10141 | 2201 ft | 163 kts | 197° |
| 2026-05-01 12:10 | 60.15673 | 11.09501 | 2586 ft | 191 kts | 198° |
| 2026-05-01 12:11 | 60.12744 | 11.10074 | 3312 ft | 236 kts | 159° |
| 2026-05-01 12:11 | 60.11264 | 11.11617 | 3758 ft | 247 kts | 155° |
| 2026-05-01 12:11 | 60.09742 | 11.13305 | 4245 ft | 258 kts | 155° |
| 2026-05-01 12:12 | 60.08677 | 11.14493 | 4501 ft | 269 kts | 155° |
| 2026-05-01 12:12 | 60.06459 | 11.16971 | 5398 ft | 279 kts | 156° |
| 2026-05-01 12:12 | 60.04753 | 11.18868 | 6288 ft | 280 kts | 156° |
| 2026-05-01 12:12 | 60.03050 | 11.20753 | 7108 ft | 283 kts | 157° |
| 2026-05-01 12:13 | 60.01883 | 11.22043 | 7656 ft | 284 kts | 157° |
| 2026-05-01 12:13 | 60.00145 | 11.23957 | 8480 ft | 286 kts | 158° |
| 2026-05-01 12:13 | 59.98408 | 11.25857 | 9276 ft | 289 kts | 158° |
| 2026-05-01 12:13 | 59.96627 | 11.27799 | 10027 ft | 293 kts | 158° |
| 2026-05-01 12:14 | 59.94799 | 11.29784 | 10435 ft | 309 kts | 158° |
| 2026-05-01 12:14 | 59.92830 | 11.31907 | 10616 ft | 333 kts | 157° |
| 2026-05-01 12:14 | 59.90740 | 11.34161 | 10810 ft | 354 kts | 157° |
| 2026-05-01 12:14 | 59.88540 | 11.36541 | 11250 ft | 365 kts | 157° |
| 2026-05-01 12:15 | 59.86288 | 11.38986 | 11899 ft | 369 kts | 157° |
| 2026-05-01 12:15 | 59.84056 | 11.41410 | 12669 ft | 371 kts | 158° |
| 2026-05-01 12:15 | 59.81776 | 11.43877 | 13380 ft | 376 kts | 158° |
| 2026-05-01 12:15 | 59.79460 | 11.46374 | 14069 ft | 381 kts | 158° |
| 2026-05-01 12:16 | 59.77117 | 11.48895 | 14759 ft | 384 kts | 158° |
| 2026-05-01 12:16 | 59.74759 | 11.51429 | 15483 ft | 387 kts | 158° |
| 2026-05-01 12:16 | 59.72383 | 11.53977 | 16177 ft | 390 kts | 158° |
| 2026-05-01 12:16 | 59.69977 | 11.56551 | 16854 ft | 394 kts | 158° |
| 2026-05-01 12:17 | 59.67557 | 11.59135 | 17513 ft | 398 kts | 158° |
| 2026-05-01 12:17 | 59.65104 | 11.61749 | 18156 ft | 401 kts | 158° |
| 2026-05-01 12:17 | 59.62637 | 11.64375 | 18806 ft | 404 kts | 158° |
| 2026-05-01 12:17 | 59.60143 | 11.67026 | 19377 ft | 408 kts | 158° |
| 2026-05-01 12:18 | 59.57636 | 11.69701 | 19914 ft | 410 kts | 158° |
| 2026-05-01 12:18 | 59.55109 | 11.72379 | 20435 ft | 413 kts | 158° |
| 2026-05-01 12:18 | 59.52565 | 11.75064 | 20966 ft | 416 kts | 158° |
| 2026-05-01 12:18 | 59.49999 | 11.77768 | 21443 ft | 421 kts | 157° |
| 2026-05-01 12:19 | 59.47396 | 11.80504 | 21906 ft | 426 kts | 157° |
| 2026-05-01 12:19 | 59.44788 | 11.83247 | 22461 ft | 428 kts | 157° |
| 2026-05-01 12:19 | 59.42151 | 11.86020 | 23021 ft | 431 kts | 157° |
| 2026-05-01 12:19 | 59.39499 | 11.88802 | 23551 ft | 434 kts | 157° |
| 2026-05-01 12:20 | 59.36856 | 11.91562 | 23999 ft | 437 kts | 158° |
| 2026-05-01 12:20 | 59.34071 | 11.93852 | 24399 ft | 433 kts | 168° |
| 2026-05-01 12:20 | 59.31144 | 11.95092 | 24826 ft | 428 kts | 178° |
| 2026-05-01 12:20 | 59.28174 | 11.95395 | 25256 ft | 424 kts | 187° |
| 2026-05-01 12:21 | 59.25222 | 11.95051 | 25658 ft | 426 kts | 188° |
| 2026-05-01 12:21 | 59.22241 | 11.94658 | 26034 ft | 429 kts | 188° |
| 2026-05-01 12:21 | 59.19286 | 11.94284 | 26400 ft | 432 kts | 188° |
| 2026-05-01 12:21 | 59.16269 | 11.93933 | 26805 ft | 434 kts | 188° |
| 2026-05-01 12:22 | 59.13241 | 11.93603 | 27185 ft | 437 kts | 187° |
| 2026-05-01 12:22 | 59.10193 | 11.93283 | 27547 ft | 440 kts | 187° |
| 2026-05-01 12:22 | 59.07126 | 11.92965 | 27898 ft | 442 kts | 187° |
| 2026-05-01 12:22 | 59.04045 | 11.92645 | 28230 ft | 445 kts | 187° |
| 2026-05-01 12:23 | 59.00942 | 11.92314 | 28562 ft | 447 kts | 187° |
| 2026-05-01 12:23 | 58.97830 | 11.91966 | 28899 ft | 450 kts | 187° |
| 2026-05-01 12:23 | 58.94694 | 11.91611 | 29238 ft | 452 kts | 187° |
| 2026-05-01 12:23 | 58.91552 | 11.91257 | 29570 ft | 454 kts | 187° |
| 2026-05-01 12:24 | 58.88426 | 11.90909 | 29892 ft | 455 kts | 187° |
| 2026-05-01 12:24 | 58.85260 | 11.90559 | 30328 ft | 454 kts | 187° |
| 2026-05-01 12:24 | 58.82111 | 11.90229 | 30773 ft | 452 kts | 186° |
| 2026-05-01 12:24 | 58.78954 | 11.90464 | 31168 ft | 456 kts | 176° |
| 2026-05-01 12:25 | 58.75809 | 11.91346 | 31525 ft | 456 kts | 175° |
| 2026-05-01 12:25 | 58.69532 | 11.93214 | 32248 ft | 455 kts | 175° |
| 2026-05-01 12:25 | 58.66438 | 11.94092 | 32616 ft | 454 kts | 175° |
| 2026-05-01 12:26 | 58.63313 | 11.94950 | 32987 ft | 453 kts | 176° |
| 2026-05-01 12:26 | 58.57066 | 11.96632 | 33678 ft | 452 kts | 176° |
| 2026-05-01 12:26 | 58.53953 | 11.97471 | 34032 ft | 451 kts | 176° |
| 2026-05-01 12:27 | 58.50836 | 11.98312 | 34377 ft | 450 kts | 176° |
| 2026-05-01 12:27 | 58.44676 | 11.99972 | 34917 ft | 449 kts | 175° |
| 2026-05-01 12:28 | 58.38488 | 12.01635 | 35297 ft | 451 kts | 175° |
| 2026-05-01 12:28 | 58.35366 | 12.02471 | 35315 ft | 453 kts | 175° |
| 2026-05-01 12:29 | 58.26028 | 12.04968 | 35297 ft | 447 kts | 175° |
| 2026-05-01 12:29 | 58.16799 | 12.07412 | 35319 ft | 446 kts | 175° |
| 2026-05-01 12:30 | 58.07583 | 12.09837 | 35338 ft | 446 kts | 175° |
| 2026-05-01 12:31 | 58.01473 | 12.11439 | 35348 ft | 446 kts | 175° |
| 2026-05-01 12:31 | 57.95324 | 12.13046 | 35361 ft | 447 kts | 175° |
| 2026-05-01 12:32 | 57.89161 | 12.14652 | 35352 ft | 448 kts | 175° |
| 2026-05-01 12:32 | 57.79912 | 12.17051 | 35369 ft | 448 kts | 175° |